メインページ
METAR-TAF:

METAR-TAF

空港 :

タンナ島, バヌアツ

緯度: 19-27-18S, 経度: 169-13-26E, 海抜: 6m

現時点の気象観測

当レポートは22分前の01:00(UTC)に作成
南/南東の風 11kt
気温 26°C
湿度 79%
気圧 1013 hPa
視程10km以上
高度2500ftの雲はほとんどない
高度4000ftの雲は散在している

METAR: NVVW 190100Z 16011KT 9999 FEW025 SCT040 26/22 Q1013 RMK NIL

時間: 12:22 (01:22 UTC)

予報

当レポートは3時間2分前の22:20(UTC)に作成
予報は18日の 00時(UTC)から 19日の 24時(UTC)まで有効
南/南東の風 6kt
視程: 8000m
高度2000ftの雲は散在している
高度4000ftの千切れ雲あり
高度1800ftの千切れ雲あり
にわか雨
19日の 00時(UTC)から 19日の 03時(UTC)まで徐々に

TAF: NVVW 182220Z 1800/1924 15006KT 9999 SCT020 BKN040 INTER 1900/1906 8000 SHRA BKN018 BECMG 1900/190316007KT

4,000以上の空港の気象観測と天気予報(METAR報とTAF報)

利用可能な観測所は地図上に黄色い丸と赤い丸で示す。

丸の上にカーソルを重ねると観測所名を参照できる。

次にクリックすると気象観測と天気予報を参照できる。

マップの切り替え:黒色「×」印の緑ボタンをクリックして拡大、「-」印の緑ボタンをクリックして縮小、緑色の三角印をクリックして隣りの地図に切り替え


METAR-TAF: